Time;durP1;ratioP1;P1;durP2;ratioP2;P2;SDS_P1;SDS_P2;PMS_P1;PMS_P2;Temp;Humidity;BMP_temperature;BMP_pressure;BME280_temperature;BME280_humidity;BME280_pressure;Samples;Min_cycle;Max_cycle;Signal;HPM_P1;HPM_P2
2022/06/13 00:00:51;;;;;;;11.05;4.82;;;12.80;99.90;;;;;;4809525;29;20046;-87
2022/06/13 00:03:17;;;;;;;12.45;5.18;;;12.70;99.90;;;;;;4779236;29;20412;-87
2022/06/13 00:05:46;;;;;;;12.15;5.22;;;12.70;99.90;;;;;;4784217;29;20508;-88
2022/06/13 00:08:12;;;;;;;10.93;5.43;;;12.60;99.90;;;;;;4793737;29;20134;-88
2022/06/13 00:10:37;;;;;;;12.63;5.68;;;12.60;99.90;;;;;;4812960;29;20046;-86
2022/06/13 00:13:09;;;;;;;9.25;4.38;;;12.60;99.90;;;;;;4816304;29;20131;-88
2022/06/13 00:15:35;;;;;;;11.05;5.22;;;12.60;99.90;;;;;;4768516;29;20116;-88
2022/06/13 00:18:00;;;;;;;9.75;4.88;;;12.50;99.90;;;;;;4777169;29;20054;-88
2022/06/13 00:20:26;;;;;;;8.73;4.43;;;12.50;99.90;;;;;;4778355;29;20053;-87
2022/06/13 00:22:52;;;;;;;8.88;4.50;;;12.40;99.90;;;;;;4764283;29;20054;-88
2022/06/13 00:25:18;;;;;;;11.10;4.50;;;12.40;99.90;;;;;;4802541;29;20058;-88
2022/06/13 00:27:44;;;;;;;15.02;4.97;;;12.40;99.90;;;;;;4776637;29;20051;-88
2022/06/13 00:30:11;;;;;;;12.43;4.50;;;12.40;99.90;;;;;;4761337;29;20070;-88
2022/06/13 00:32:37;;;;;;;7.72;4.78;;;12.40;99.90;;;;;;4791261;29;20505;-88
2022/06/13 00:35:04;;;;;;;10.15;4.95;;;12.30;99.90;;;;;;4790948;29;20090;-88
2022/06/13 00:37:29;;;;;;;9.73;4.63;;;12.30;99.90;;;;;;4794237;29;20054;-87
2022/06/13 00:39:55;;;;;;;9.32;4.60;;;12.30;99.90;;;;;;4790799;29;20061;-88
2022/06/13 00:42:23;;;;;;;10.75;4.57;;;12.30;99.90;;;;;;4793214;29;20444;-88
2022/06/13 00:45:26;;;;;;;9.77;4.20;;;12.30;99.90;;;;;;4792079;29;20058;-87
2022/06/13 00:47:54;;;;;;;10.57;4.47;;;12.30;99.90;;;;;;4754332;29;20059;-88
2022/06/13 00:50:31;;;;;;;12.00;5.00;;;12.30;99.90;;;;;;4790298;29;20054;-87
2022/06/13 00:53:26;;;;;;;12.70;4.75;;;12.20;99.90;;;;;;4790798;29;20055;-87
2022/06/13 00:55:58;;;;;;;13.80;5.35;;;12.30;99.90;;;;;;4790587;29;20051;-87
2022/06/13 00:58:26;;;;;;;11.57;4.90;;;12.30;99.90;;;;;;4775374;29;20085;-87
2022/06/13 01:00:55;;;;;;;13.15;5.53;;;12.30;99.90;;;;;;4775810;29;20081;-88
2022/06/13 01:03:22;;;;;;;10.55;4.82;;;12.40;99.90;;;;;;4760104;29;20523;-88
2022/06/13 01:05:51;;;;;;;14.48;5.35;;;12.40;99.90;;;;;;4776921;29;20051;-88
2022/06/13 01:08:21;;;;;;;10.25;5.80;;;12.40;99.90;;;;;;4793137;29;20062;-88
2022/06/13 01:14:10;;;;;;;11.80;5.72;;;12.50;99.90;;;;;;4815938;29;20058;-87
2022/06/13 01:16:54;;;;;;;14.15;5.90;;;11.50;99.90;;;;;;4789983;29;20057;-87
2022/06/13 01:19:41;;;;;;;11.95;5.32;;;12.40;99.90;;;;;;4785376;29;20521;-88
2022/06/13 01:22:16;;;;;;;12.88;5.60;;;12.10;99.90;;;;;;4793344;29;20206;-87
2022/06/13 01:25:21;;;;;;;13.52;5.72;;;12.40;99.90;;;;;;4793579;29;20797;-88
2022/06/13 01:28:48;;;;;;;13.63;5.15;;;12.40;99.90;;;;;;4791040;29;20055;-88
2022/06/13 01:31:36;;;;;;;10.15;5.28;;;12.40;99.90;;;;;;4718024;30;20048;-87
2022/06/13 01:34:09;;;;;;;11.30;4.85;;;12.30;99.90;;;;;;4799078;29;20065;-88
2022/06/13 01:37:09;;;;;;;11.68;5.55;;;12.40;99.90;;;;;;4789746;29;20134;-87
2022/06/13 01:39:53;;;;;;;11.77;5.50;;;12.40;99.90;;;;;;4789785;29;20047;-88
2022/06/13 01:42:40;;;;;;;14.38;5.88;;;12.30;99.90;;;;;;4806445;29;20050;-87
2022/06/13 01:45:29;;;;;;;11.88;5.47;;;12.30;99.90;;;;;;4792311;29;20065;-88
2022/06/13 01:48:19;;;;;;;10.95;5.40;;;12.30;99.90;;;;;;4793574;29;20073;-87
2022/06/13 01:50:52;;;;;;;11.38;6.13;;;12.40;99.90;;;;;;4789577;29;20086;-87
2022/06/13 01:53:39;;;;;;;15.05;5.70;;;12.40;99.90;;;;;;4789828;29;20438;-88
2022/06/13 01:56:12;;;;;;;10.80;5.60;;;12.50;99.90;;;;;;4792830;29;20047;-88
2022/06/13 01:59:04;;;;;;;12.25;6.22;;;12.50;99.90;;;;;;4805665;29;20084;-88
2022/06/13 02:01:44;;;;;;;13.85;5.90;;;12.50;99.90;;;;;;4825952;29;20141;-88
2022/06/13 02:04:20;;;;;;;14.75;6.32;;;11.60;99.90;;;;;;4811003;29;20061;-88
2022/06/13 02:07:17;;;;;;;12.73;6.05;;;12.60;99.90;;;;;;4811349;29;20103;-88
2022/06/13 02:09:51;;;;;;;12.05;5.75;;;12.50;99.90;;;;;;4792374;29;20062;-88
2022/06/13 02:12:19;;;;;;;13.97;6.10;;;12.60;99.90;;;;;;4791544;29;20055;-87
2022/06/13 02:14:55;;;;;;;11.23;5.40;;;12.60;99.90;;;;;;4794534;29;20304;-87
2022/06/13 02:17:26;;;;;;;12.70;5.90;;;12.60;99.90;;;;;;4795906;29;20050;-88
2022/06/13 02:20:00;;;;;;;11.75;6.55;;;12.60;99.90;;;;;;4778239;29;20172;-89
2022/06/13 02:22:39;;;;;;;14.57;6.50;;;12.70;99.90;;;;;;4777976;29;20055;-88
2022/06/13 02:25:19;;;;;;;13.48;7.20;;;12.60;99.90;;;;;;4794642;29;20058;-86
2022/06/13 02:27:59;;;;;;;17.38;7.15;;;12.70;99.90;;;;;;4791993;29;20042;-87
2022/06/13 02:30:31;;;;;;;12.80;6.15;;;12.60;99.90;;;;;;4796780;29;20090;-88
2022/06/13 02:33:32;;;;;;;21.98;8.48;;;12.70;99.90;;;;;;4796236;29;20074;-88
2022/06/13 02:36:10;;;;;;;14.63;6.28;;;12.60;99.90;;;;;;4791606;29;20059;-88
2022/06/13 02:38:51;;;;;;;16.00;6.45;;;12.70;99.90;;;;;;4795759;29;20054;-88
2022/06/13 02:41:20;;;;;;;13.20;6.30;;;12.70;99.90;;;;;;4796440;29;20499;-87
2022/06/13 02:43:52;;;;;;;14.02;6.63;;;12.70;99.90;;;;;;4791428;29;20058;-88
2022/06/13 02:46:27;;;;;;;15.20;7.03;;;12.70;99.90;;;;;;4760777;30;20086;-88
2022/06/13 02:49:01;;;;;;;12.70;6.20;;;12.70;99.90;;;;;;4777779;29;20062;-88
2022/06/13 02:51:47;;;;;;;11.27;6.13;;;12.70;99.90;;;;;;4777804;29;20047;-88
2022/06/13 02:54:26;;;;;;;14.32;6.93;;;12.80;99.90;;;;;;4778337;29;20098;-88
2022/06/13 02:57:25;;;;;;;12.60;6.90;;;12.80;99.90;;;;;;4760061;30;20116;-88
2022/06/13 03:00:15;;;;;;;14.52;7.45;;;12.80;99.90;;;;;;4764554;30;20055;-88
2022/06/13 03:02:49;;;;;;;12.98;6.35;;;12.80;99.90;;;;;;4777907;29;20051;-88
2022/06/13 03:05:15;;;;;;;15.18;6.47;;;12.90;99.90;;;;;;4777899;29;20047;-88
2022/06/13 03:07:52;;;;;;;13.23;5.93;;;12.80;99.90;;;;;;4777905;29;20051;-88
2022/06/13 03:10:21;;;;;;;18.08;6.63;;;12.80;99.90;;;;;;4778022;29;20385;-87
2022/06/13 03:12:53;;;;;;;10.93;5.78;;;12.90;99.90;;;;;;4777316;29;20051;-88
2022/06/13 03:15:28;;;;;;;10.80;6.05;;;12.90;99.90;;;;;;4777788;29;20047;-88
2022/06/13 03:18:15;;;;;;;12.50;5.93;;;12.90;99.90;;;;;;4777964;29;20059;-88
2022/06/13 03:20:49;;;;;;;13.90;6.72;;;12.90;99.90;;;;;;4777310;29;20097;-87
2022/06/13 03:23:23;;;;;;;15.23;6.70;;;12.90;99.90;;;;;;4780060;29;20658;-87
2022/06/13 03:25:59;;;;;;;14.77;7.85;;;12.90;99.90;;;;;;4794211;29;20161;-88
2022/06/13 03:28:46;;;;;;;16.77;6.50;;;12.90;99.90;;;;;;4784883;30;20377;-88
2022/06/13 03:31:37;;;;;;;14.85;6.45;;;12.80;99.90;;;;;;4774674;30;20051;-88
2022/06/13 03:34:13;;;;;;;13.75;5.75;;;12.90;99.90;;;;;;4775218;29;20086;-88
2022/06/13 03:37:03;;;;;;;10.95;5.60;;;12.90;99.90;;;;;;4791167;29;20055;-88
2022/06/13 03:39:40;;;;;;;8.68;4.75;;;12.80;99.90;;;;;;4775796;29;20058;-88
2022/06/13 03:42:29;;;;;;;12.15;5.25;;;12.90;99.90;;;;;;4778990;29;20200;-88
2022/06/13 03:45:16;;;;;;;12.00;5.50;;;12.80;99.90;;;;;;4793250;29;20050;-88
2022/06/13 03:48:14;;;;;;;17.23;5.20;;;12.90;99.90;;;;;;4792410;29;20082;-88
2022/06/13 03:50:46;;;;;;;11.40;5.30;;;12.90;99.90;;;;;;4780928;29;20091;-87
2022/06/13 03:53:23;;;;;;;11.52;5.85;;;12.90;99.90;;;;;;4810448;29;20449;-87
2022/06/13 03:56:01;;;;;;;9.82;5.53;;;12.90;99.90;;;;;;4824183;29;20107;-88
2022/06/13 03:58:45;;;;;;;10.90;5.38;;;13.00;99.90;;;;;;4791997;29;20055;-87
2022/06/13 04:01:26;;;;;;;14.45;6.28;;;13.00;99.90;;;;;;4776774;29;20058;-87
2022/06/13 04:03:55;;;;;;;11.90;6.28;;;13.00;99.90;;;;;;4797905;29;20054;-87
2022/06/13 04:06:40;;;;;;;14.35;5.88;;;13.00;99.90;;;;;;4794943;29;20054;-87
2022/06/13 04:09:10;;;;;;;11.45;4.80;;;13.10;99.90;;;;;;4794339;29;20058;-87
2022/06/13 04:11:53;;;;;;;11.68;5.68;;;13.10;99.90;;;;;;4793738;29;20050;-87
2022/06/13 04:14:37;;;;;;;12.77;5.88;;;13.10;99.90;;;;;;4794028;29;20046;-87
2022/06/13 04:17:11;;;;;;;10.40;4.95;;;13.20;99.90;;;;;;4791300;29;20082;-87
2022/06/13 04:19:53;;;;;;;9.67;4.90;;;13.20;99.90;;;;;;4802833;29;20042;-88
2022/06/13 04:22:22;;;;;;;12.07;4.93;;;13.20;99.90;;;;;;4809545;29;20284;-88
2022/06/13 04:25:03;;;;;;;13.23;5.00;;;13.30;99.90;;;;;;4808390;29;20046;-87
2022/06/13 04:27:53;;;;;;;13.95;5.65;;;13.30;99.90;;;;;;4792694;29;20454;-86
2022/06/13 04:30:23;;;;;;;9.07;4.43;;;13.40;99.90;;;;;;4794694;29;20123;-87
2022/06/13 04:33:03;;;;;;;14.90;4.63;;;13.30;99.90;;;;;;4780149;29;20251;-87
2022/06/13 04:35:37;;;;;;;7.95;4.30;;;13.30;99.90;;;;;;4790700;29;20058;-87
2022/06/13 04:38:05;;;;;;;14.10;4.50;;;13.20;99.90;;;;;;4811630;29;20445;-85
2022/06/13 04:40:35;;;;;;;9.60;5.10;;;13.30;99.90;;;;;;4796563;29;20460;-86
2022/06/13 04:43:05;;;;;;;11.00;4.43;;;13.30;99.90;;;;;;4809843;29;20533;-87
2022/06/13 04:46:00;;;;;;;12.73;4.18;;;13.40;99.90;;;;;;4793729;29;20516;-87
2022/06/13 04:48:26;;;;;;;8.73;4.15;;;13.40;99.90;;;;;;4790559;29;20065;-87
2022/06/13 04:50:57;;;;;;;9.73;4.25;;;13.50;99.90;;;;;;4793846;29;20062;-87
2022/06/13 04:53:27;;;;;;;9.43;4.10;;;13.60;99.90;;;;;;4793408;29;20061;-87
2022/06/13 04:55:54;;;;;;;10.82;3.70;;;13.60;99.90;;;;;;4796263;29;20448;-86
2022/06/13 04:58:37;;;;;;;9.20;3.58;;;13.70;99.90;;;;;;4787014;29;20057;-87
2022/06/13 05:01:06;;;;;;;6.65;3.03;;;13.70;99.90;;;;;;4793701;29;20042;-87
2022/06/13 05:03:38;;;;;;;8.25;3.65;;;13.70;99.90;;;;;;4808609;29;20054;-86
2022/06/13 05:06:18;;;;;;;5.70;2.80;;;13.70;99.90;;;;;;4778761;29;20064;-87
2022/06/13 05:08:44;;;;;;;7.30;2.75;;;13.80;99.90;;;;;;4782281;29;20054;-88
2022/06/13 05:11:23;;;;;;;5.97;2.50;;;13.80;99.90;;;;;;4775871;29;20051;-89
2022/06/13 05:14:06;;;;;;;5.35;2.60;;;13.80;99.90;;;;;;4785917;29;20057;-88
2022/06/13 05:16:41;;;;;;;6.38;2.25;;;14.80;99.90;;;;;;4808364;29;20042;-89
2022/06/13 05:19:20;;;;;;;5.35;2.40;;;13.70;99.90;;;;;;4793285;29;20496;-87
2022/06/13 05:22:00;;;;;;;6.57;2.00;;;14.00;99.90;;;;;;4794000;29;20122;-87
2022/06/13 05:24:32;;;;;;;4.63;1.85;;;13.40;99.90;;;;;;4793190;29;20052;-88
2022/06/13 05:26:58;;;;;;;6.10;1.85;;;13.40;99.90;;;;;;4792594;29;20058;-88
2022/06/13 05:29:25;;;;;;;6.25;1.77;;;13.40;99.90;;;;;;4760225;29;20046;-87
2022/06/13 05:31:53;;;;;;;3.65;1.80;;;13.40;99.90;;;;;;4792830;29;20610;-88
2022/06/13 05:34:37;;;;;;;4.65;2.25;;;13.20;99.90;;;;;;4806469;29;20137;-87
2022/06/13 05:37:04;;;;;;;3.72;1.63;;;13.30;99.90;;;;;;4793899;29;20042;-88
2022/06/13 05:39:37;;;;;;;6.15;1.98;;;13.20;99.90;;;;;;4778655;29;20165;-88
2022/06/13 05:42:04;;;;;;;5.95;1.90;;;13.30;99.90;;;;;;4778142;29;20050;-87
2022/06/13 05:44:30;;;;;;;6.93;2.20;;;13.50;99.90;;;;;;4775080;29;20054;-87
2022/06/13 05:46:59;;;;;;;7.45;2.13;;;13.70;99.90;;;;;;4778379;29;20050;-89
2022/06/13 05:49:27;;;;;;;7.30;2.10;;;13.70;99.90;;;;;;4792622;29;20077;-91
2022/06/13 05:51:56;;;;;;;7.25;2.63;;;14.90;99.90;;;;;;4793308;29;20449;-90
2022/06/13 05:54:25;;;;;;;6.10;2.13;;;14.10;99.90;;;;;;4773487;29;20062;-87
2022/06/13 05:56:53;;;;;;;3.40;1.90;;;14.20;99.90;;;;;;4775849;29;20058;-87
2022/06/13 05:59:19;;;;;;;7.50;1.90;;;13.30;99.90;;;;;;4792880;29;20047;-87
2022/06/13 06:02:39;;;;;;;6.57;1.80;;;14.40;99.90;;;;;;4763293;29;20050;-88
2022/06/13 06:05:05;;;;;;;6.80;1.73;;;14.20;99.90;;;;;;4792881;29;20098;-87
2022/06/13 06:07:36;;;;;;;3.03;1.50;;;14.50;99.90;;;;;;4763359;29;20074;-89
2022/06/13 06:10:06;;;;;;;5.53;1.45;;;14.40;99.90;;;;;;4807825;29;20123;-88
2022/06/13 06:12:35;;;;;;;5.28;1.38;;;14.50;99.90;;;;;;4793318;29;20126;-88
2022/06/13 06:19:04;;;;;;;3.50;1.30;;;14.20;99.90;;;;;;4791027;29;20053;-91
2022/06/13 06:21:36;;;;;;;5.78;1.38;;;14.10;99.90;;;;;;4776069;29;20161;-89
2022/06/13 06:24:01;;;;;;;6.60;1.85;;;14.80;99.90;;;;;;4775324;29;20059;-88
2022/06/13 06:26:32;;;;;;;3.85;1.38;;;15.00;99.90;;;;;;4786930;29;20469;-88
2022/06/13 06:28:58;;;;;;;6.13;1.55;;;15.00;99.90;;;;;;4793019;29;20086;-88
2022/06/13 06:31:27;;;;;;;7.20;1.70;;;15.20;99.90;;;;;;4789212;29;20054;-89
2022/06/13 06:33:53;;;;;;;4.13;1.30;;;15.20;99.90;;;;;;4789087;29;20055;-88
2022/06/13 06:36:19;;;;;;;6.03;1.70;;;15.20;99.90;;;;;;4777046;29;20412;-86
2022/06/13 06:38:45;;;;;;;7.45;1.50;;;15.10;99.90;;;;;;4762705;29;20089;-87
2022/06/13 06:41:11;;;;;;;4.43;1.70;;;14.90;99.90;;;;;;4793035;29;20043;-87
2022/06/13 06:43:37;;;;;;;5.10;1.67;;;14.70;99.90;;;;;;4777817;29;20403;-87
2022/06/13 06:46:08;;;;;;;7.30;1.63;;;14.60;99.90;;;;;;4792573;29;20393;-87
2022/06/13 06:48:37;;;;;;;3.40;1.30;;;14.30;99.90;;;;;;4778631;29;20107;-87
2022/06/13 06:51:16;;;;;;;3.05;1.38;;;13.30;99.90;;;;;;4780101;29;20050;-88
2022/06/13 06:59:53;;;;;;;5.00;1.50;;;14.30;99.90;;;;;;4828429;29;20083;-88
2022/06/13 07:02:30;;;;;;;4.55;1.52;;;14.00;99.90;;;;;;4797006;29;20054;-88
2022/06/13 07:05:02;;;;;;;3.35;1.30;;;13.90;99.90;;;;;;4792773;29;20054;-87
2022/06/13 07:07:28;;;;;;;3.50;1.30;;;14.20;99.90;;;;;;4793093;29;20157;-87
2022/06/13 07:14:03;;;;;;;8.45;1.50;;;14.20;99.90;;;;;;4752507;30;20100;-87
2022/06/13 07:17:13;;;;;;;3.80;1.60;;;14.10;99.90;;;;;;4772139;29;20059;-88
2022/06/13 07:19:44;;;;;;;3.92;1.38;;;14.10;99.90;;;;;;4795250;29;20377;-88
2022/06/13 07:22:28;;;;;;;4.18;1.67;;;14.50;99.90;;;;;;4760046;30;20058;-88
2022/06/13 07:25:18;;;;;;;4.95;1.40;;;14.70;99.90;;;;;;4778767;30;20096;-88
2022/06/13 07:27:47;;;;;;;4.82;1.55;;;14.70;99.90;;;;;;4740915;30;20509;-88
2022/06/13 07:33:59;;;;;;;5.68;1.60;;;13.90;99.90;;;;;;4770422;30;20174;-90
2022/06/13 07:36:27;;;;;;;4.35;1.38;;;14.80;99.90;;;;;;4740944;30;20083;-89
2022/06/13 07:38:53;;;;;;;4.85;1.75;;;15.30;99.90;;;;;;4770811;30;20098;-89
2022/06/13 07:41:34;;;;;;;6.68;1.52;;;15.90;99.90;;;;;;4749311;30;20612;-91
2022/06/13 07:44:08;;;;;;;8.35;1.58;;;16.00;99.90;;;;;;4755782;30;20060;-89
2022/06/13 07:47:30;;;;;;;8.50;1.83;;;15.70;99.90;;;;;;4741111;30;20048;-89
2022/06/13 07:50:12;;;;;;;4.18;1.20;;;15.50;99.90;;;;;;4737633;30;20055;-88
2022/06/13 07:52:44;;;;;;;3.70;1.25;;;15.20;99.90;;;;;;4768546;29;20058;-89
2022/06/13 07:55:11;;;;;;;4.47;1.42;;;14.50;99.90;;;;;;4747623;29;20055;-88
2022/06/13 07:57:37;;;;;;;4.75;1.42;;;15.50;99.90;;;;;;4777703;29;20084;-88
2022/06/13 08:00:08;;;;;;;5.78;1.40;;;15.80;99.90;;;;;;4761961;29;20058;-90
2022/06/13 08:02:35;;;;;;;5.25;1.42;;;15.90;99.90;;;;;;4792452;29;20057;-90
2022/06/13 08:05:01;;;;;;;3.92;1.08;;;16.10;99.90;;;;;;4748247;29;20113;-91
2022/06/13 08:07:30;;;;;;;3.47;1.27;;;15.70;99.90;;;;;;4780212;29;20115;-88
2022/06/13 08:10:25;;;;;;;3.60;1.08;;;16.10;99.90;;;;;;4781014;29;20051;-88
2022/06/13 08:13:58;;;;;;;;;;;;;;;;;;;;;
2022/06/13 08:18:08;;;;;;;4.80;1.33;;;15.80;99.90;;;;;;4734859;30;20061;-90
2022/06/13 08:20:24;;;;;;;2.42;1.08;;;15.70;99.90;;;;;;4713827;30;20049;-90
2022/06/13 08:23:16;;;;;;;5.45;1.30;;;16.80;99.90;;;;;;4720033;30;20061;-90
2022/06/13 08:25:48;;;;;;;2.72;0.90;;;16.50;99.90;;;;;;4776750;29;20078;-90
2022/06/13 08:28:23;;;;;;;3.13;1.30;;;16.60;99.90;;;;;;4791312;29;20138;-90
2022/06/13 08:31:13;;;;;;;4.68;1.10;;;16.00;99.90;;;;;;4821360;29;20068;-91
2022/06/13 08:33:48;;;;;;;4.97;0.93;;;16.90;99.90;;;;;;4785332;29;20051;-89
2022/06/13 08:36:34;;;;;;;9.10;1.33;;;16.10;99.90;;;;;;4807910;29;20062;-89
2022/06/13 08:39:00;;;;;;;3.83;1.27;;;16.30;99.90;;;;;;4778993;29;20068;-89
2022/06/13 08:41:39;;;;;;;6.80;1.23;;;16.60;99.90;;;;;;4797158;29;20051;-91
2022/06/13 08:44:30;;;;;;;3.05;1.02;;;16.80;99.90;;;;;;4794812;29;20057;-88
2022/06/13 08:47:38;;;;;;;3.78;1.27;;;16.40;99.90;;;;;;4805550;29;20134;-91
2022/06/13 08:54:00;;;;;;;2.20;0.80;;;17.20;99.90;;;;;;4752058;30;20059;-90
2022/06/13 08:56:57;;;;;;;3.55;1.25;;;16.60;99.90;;;;;;4791819;29;20050;-91
2022/06/13 09:03:20;;;;;;;4.90;1.30;;;15.90;99.90;;;;;;4831943;29;20090;-92
2022/06/13 09:05:59;;;;;;;5.30;1.35;;;15.70;99.90;;;;;;4810266;29;20399;-87
2022/06/13 09:08:35;;;;;;;3.17;0.98;;;15.70;99.90;;;;;;4794572;29;20058;-88
2022/06/13 09:11:51;;;;;;;3.50;1.20;;;16.10;99.90;;;;;;4816280;29;20054;-90
2022/06/13 09:18:50;;;;;;;4.53;0.80;;;16.80;99.90;;;;;;4787600;30;20127;-90
2022/06/13 09:21:55;;;;;;;3.97;0.95;;;17.60;99.90;;;;;;4757376;30;20054;-89
2022/06/13 09:24:50;;;;;;;4.95;1.10;;;18.20;99.90;;;;;;4740906;30;20067;-90
2022/06/13 09:27:41;;;;;;;3.58;1.10;;;17.90;99.90;;;;;;4767024;30;20174;-89
2022/06/13 09:30:20;;;;;;;4.57;1.27;;;17.30;99.90;;;;;;4765936;30;20107;-90
2022/06/13 09:32:53;;;;;;;4.25;1.00;;;17.70;99.90;;;;;;4771882;30;20486;-89
2022/06/13 09:35:21;;;;;;;2.55;1.05;;;18.10;99.90;;;;;;4771137;30;20063;-89
2022/06/13 09:37:53;;;;;;;4.60;1.00;;;18.20;99.90;;;;;;4770748;30;20047;-89
2022/06/13 09:40:36;;;;;;;2.97;0.95;;;18.90;99.90;;;;;;4756788;30;20062;-90
2022/06/13 09:49:36;;;;;;;3.90;0.98;;;16.90;99.90;;;;;;4786400;29;20057;-89
2022/06/13 09:52:38;;;;;;;3.90;1.10;;;17.80;99.90;;;;;;4794220;29;20461;-90
2022/06/13 09:55:44;;;;;;;5.70;1.10;;;16.90;99.90;;;;;;4808541;29;20042;-87
2022/06/13 09:58:47;;;;;;;3.75;1.55;;;16.80;99.90;;;;;;4808001;29;20049;-91
2022/06/13 10:01:44;;;;;;;7.07;1.27;;;17.70;99.90;;;;;;4807515;29;20055;-90
2022/06/13 10:04:34;;;;;;;4.32;1.00;;;18.40;99.90;;;;;;4790329;29;21104;-88
2022/06/13 10:07:27;;;;;;;5.07;1.25;;;18.80;99.90;;;;;;4789263;29;20578;-88
2022/06/13 10:10:22;;;;;;;8.90;1.20;;;18.50;99.90;;;;;;4774137;29;20508;-88
2022/06/13 10:13:23;;;;;;;6.95;2.00;;;17.10;99.90;;;;;;4798252;29;20046;-86
2022/06/13 10:16:10;;;;;;;3.60;1.17;;;16.20;99.90;;;;;;4792633;29;20062;-87
2022/06/13 10:18:51;;;;;;;4.43;1.40;;;16.80;99.90;;;;;;4793077;29;20144;-89
2022/06/13 10:21:36;;;;;;;6.07;1.40;;;17.30;99.90;;;;;;4793091;29;20581;-89
2022/06/13 10:24:24;;;;;;;4.20;1.02;;;17.70;99.90;;;;;;4793072;29;20404;-89
2022/06/13 10:27:16;;;;;;;5.55;1.27;;;17.30;99.90;;;;;;4807787;29;20119;-88
2022/06/13 10:30:11;;;;;;;3.55;1.10;;;17.20;99.90;;;;;;4772496;29;20065;-89
2022/06/13 10:33:07;;;;;;;3.40;1.00;;;16.70;99.90;;;;;;4793366;29;20057;-87
2022/06/13 10:35:54;;;;;;;4.15;1.27;;;17.20;99.90;;;;;;4794432;29;20050;-88
2022/06/13 10:38:49;;;;;;;3.45;1.13;;;17.60;99.90;;;;;;4811871;29;20057;-88
2022/06/13 10:41:28;;;;;;;5.25;1.67;;;17.00;99.90;;;;;;4772444;29;20093;-89
2022/06/13 10:43:56;;;;;;;5.55;1.73;;;17.20;99.90;;;;;;4775285;29;20145;-88
2022/06/13 10:46:22;;;;;;;4.40;1.42;;;18.30;99.90;;;;;;4779158;29;20062;-90
2022/06/13 10:49:07;;;;;;;6.00;1.67;;;18.10;99.90;;;;;;4797516;29;20050;-89
2022/06/13 10:51:36;;;;;;;13.90;1.77;;;17.40;99.90;;;;;;4796634;29;20054;-89
2022/06/13 10:54:22;;;;;;;5.45;1.55;;;16.90;99.90;;;;;;4781323;29;20449;-89
2022/06/13 10:57:12;;;;;;;6.00;1.58;;;16.70;99.90;;;;;;4796117;29;20094;-89
2022/06/13 10:59:38;;;;;;;4.88;1.52;;;16.90;99.90;;;;;;4794702;29;20054;-87
2022/06/13 11:02:21;;;;;;;5.28;1.40;;;18.10;99.90;;;;;;4781672;29;20535;-89
2022/06/13 11:05:13;;;;;;;6.18;1.90;;;17.40;99.90;;;;;;4796327;29;20050;-88
2022/06/13 11:07:50;;;;;;;8.80;1.65;;;17.20;99.90;;;;;;4799142;29;20660;-89
2022/06/13 11:10:29;;;;;;;4.80;1.40;;;17.00;99.90;;;;;;4799036;29;20073;-87
2022/06/13 11:12:59;;;;;;;5.13;1.40;;;16.60;99.90;;;;;;4796925;29;20376;-89
2022/06/13 11:24:23;;;;;;;5.55;1.52;;;17.60;99.90;;;;;;4799323;29;20557;-88
2022/06/13 11:29:37;;;;;;;3.45;1.15;;;17.40;99.90;;;;;;4808461;29;20090;-87
2022/06/13 11:32:17;;;;;;;6.10;1.95;;;18.10;99.90;;;;;;4810157;29;20061;-88
2022/06/13 11:34:45;;;;;;;8.15;1.88;;;18.80;99.90;;;;;;4810513;29;20054;-89
2022/06/13 11:37:25;;;;;;;5.85;1.25;;;18.80;99.90;;;;;;4794992;29;20062;-89
2022/06/13 11:40:00;;;;;;;4.93;1.35;;;18.80;99.90;;;;;;4795716;29;20050;-90
2022/06/13 11:42:31;;;;;;;5.32;1.30;;;18.40;99.90;;;;;;4781225;29;20062;-87
2022/06/13 11:45:16;;;;;;;7.22;1.50;;;17.90;99.90;;;;;;4795743;29;20058;-89
2022/06/13 11:47:49;;;;;;;6.80;1.83;;;18.10;99.90;;;;;;4794605;29;20106;-91
2022/06/13 11:50:28;;;;;;;3.42;1.13;;;17.60;99.90;;;;;;4779097;29;20055;-88
2022/06/13 11:59:04;;;;;;;7.43;1.80;;;17.80;99.90;;;;;;4780733;29;20055;-89
2022/06/13 12:01:38;;;;;;;4.95;1.30;;;18.20;99.90;;;;;;4795099;29;20065;-89
2022/06/13 12:04:20;;;;;;;4.65;1.73;;;18.70;99.90;;;;;;4795940;29;20061;-88
2022/06/13 12:07:00;;;;;;;6.78;1.52;;;18.80;99.90;;;;;;4778604;29;20065;-88
2022/06/13 12:09:33;;;;;;;5.13;1.70;;;19.30;99.90;;;;;;4779876;29;20054;-90
2022/06/13 12:12:56;;;;;;;2.85;1.35;;;19.20;99.90;;;;;;4808316;29;20099;-88
2022/06/13 12:15:37;;;;;;;5.57;1.20;;;18.10;99.90;;;;;;4808280;29;20140;-87
2022/06/13 12:18:18;;;;;;;5.55;1.20;;;18.00;99.90;;;;;;4808286;29;20042;-87
2022/06/13 12:20:53;;;;;;;3.45;1.10;;;18.80;99.90;;;;;;4808220;29;20053;-88
2022/06/13 12:23:28;;;;;;;2.83;1.02;;;18.40;99.90;;;;;;4807879;29;20058;-88
2022/06/13 12:26:34;;;;;;;7.72;1.60;;;18.30;99.90;;;;;;4807184;29;20085;-87
2022/06/13 12:29:06;;;;;;;6.80;1.23;;;17.80;99.90;;;;;;4781521;29;20054;-88
2022/06/13 12:31:56;;;;;;;5.72;1.50;;;17.90;99.90;;;;;;4792945;29;20061;-87
2022/06/13 12:34:59;;;;;;;9.10;1.58;;;18.00;99.90;;;;;;4794188;29;20065;-89
2022/06/13 12:37:43;;;;;;;3.63;1.15;;;17.80;99.90;;;;;;4808316;29;20431;-88
2022/06/13 12:40:14;;;;;;;4.63;1.92;;;18.10;99.90;;;;;;4821579;29;20043;-88
2022/06/13 12:42:55;;;;;;;9.23;1.75;;;18.40;99.90;;;;;;4786627;29;20071;-87
2022/06/13 12:45:48;;;;;;;4.90;1.30;;;18.40;99.90;;;;;;4790327;29;20050;-87
2022/06/13 12:48:45;;;;;;;5.40;1.40;;;18.40;99.90;;;;;;4745606;29;20046;-88
2022/06/13 12:51:32;;;;;;;2.22;0.90;;;18.40;99.90;;;;;;4785883;29;20062;-87
2022/06/13 12:54:31;;;;;;;3.67;0.90;;;17.90;99.90;;;;;;4808252;29;20404;-88
2022/06/13 12:57:25;;;;;;;2.45;0.80;;;18.00;99.90;;;;;;4789572;29;20138;-87
2022/06/13 13:00:20;;;;;;;3.83;1.00;;;18.40;99.90;;;;;;4775238;29;20046;-88
2022/06/13 13:03:02;;;;;;;3.15;1.25;;;17.60;99.90;;;;;;4775670;29;20133;-88
2022/06/13 13:05:59;;;;;;;3.38;0.85;;;18.30;99.90;;;;;;4775079;29;20059;-87
2022/06/13 13:09:07;;;;;;;3.72;1.00;;;18.70;99.90;;;;;;4761865;29;20133;-87
2022/06/13 13:11:44;;;;;;;5.28;1.10;;;18.90;99.90;;;;;;4772100;29;20065;-86
2022/06/13 13:14:33;;;;;;;2.08;1.00;;;19.00;99.90;;;;;;4775002;29;20089;-88
2022/06/13 13:17:05;;;;;;;3.58;1.13;;;19.40;99.90;;;;;;4774483;29;20543;-88
2022/06/13 13:19:35;;;;;;;2.58;0.80;;;19.10;99.90;;;;;;4794452;29;20408;-87
2022/06/13 13:22:15;;;;;;;2.83;0.88;;;19.10;99.90;;;;;;4791662;29;20051;-90
2022/06/13 13:25:15;;;;;;;4.32;0.90;;;18.80;99.90;;;;;;4797876;29;20385;-87
2022/06/13 13:28:05;;;;;;;1.45;0.82;;;18.30;99.90;;;;;;4778769;29;20158;-87
2022/06/13 13:30:51;;;;;;;3.22;1.13;;;18.20;99.90;;;;;;4798346;29;20496;-88
2022/06/13 13:33:23;;;;;;;4.25;1.23;;;18.20;99.90;;;;;;4777182;29;20142;-87
2022/06/13 13:36:20;;;;;;;3.13;1.00;;;19.20;99.90;;;;;;4808247;29;20061;-88
2022/06/13 13:38:53;;;;;;;5.22;1.38;;;18.60;99.90;;;;;;4792744;29;20046;-88
2022/06/13 13:41:28;;;;;;;1.67;1.00;;;18.90;99.90;;;;;;4822207;29;20058;-87
2022/06/13 13:44:20;;;;;;;3.72;1.10;;;18.90;99.90;;;;;;4792810;29;20065;-88
2022/06/13 13:46:59;;;;;;;2.13;0.82;;;18.70;99.90;;;;;;4792394;29;20054;-87
2022/06/13 13:49:31;;;;;;;4.18;1.23;;;18.80;99.90;;;;;;4821743;29;20057;-89
2022/06/13 13:52:17;;;;;;;3.38;0.93;;;18.30;99.90;;;;;;4792499;29;20062;-87
2022/06/13 13:55:05;;;;;;;3.47;1.23;;;18.90;99.90;;;;;;4801855;29;20389;-89
2022/06/13 13:57:43;;;;;;;2.35;0.82;;;18.30;99.90;;;;;;4792285;29;20749;-87
2022/06/13 14:00:45;;;;;;;2.20;0.80;;;18.10;99.90;;;;;;4807150;29;20063;-88
2022/06/13 14:03:48;;;;;;;5.10;1.10;;;17.80;99.90;;;;;;4807258;29;20074;-87
2022/06/13 14:06:48;;;;;;;3.00;0.90;;;18.00;99.90;;;;;;4807198;29;20406;-88
2022/06/13 14:09:19;;;;;;;3.58;1.30;;;17.50;99.90;;;;;;4786903;29;20065;-88
2022/06/13 14:12:08;;;;;;;5.72;1.25;;;17.70;99.90;;;;;;4792410;29;20054;-88
2022/06/13 14:15:00;;;;;;;5.25;1.15;;;17.60;99.90;;;;;;4793136;29;20061;-87
2022/06/13 14:17:46;;;;;;;3.88;1.48;;;17.50;99.90;;;;;;4789454;29;20050;-87
2022/06/13 14:20:27;;;;;;;3.45;1.33;;;17.50;99.90;;;;;;4804155;29;20050;-88
2022/06/13 14:23:00;;;;;;;2.47;1.23;;;18.00;99.90;;;;;;4791759;29;20042;-87
2022/06/13 14:25:46;;;;;;;3.45;1.05;;;18.40;99.90;;;;;;4806669;29;20057;-87
2022/06/13 14:28:15;;;;;;;3.70;1.10;;;18.50;99.90;;;;;;4791403;29;20062;-88
2022/06/13 14:36:50;;;;;;;3.15;0.90;;;18.50;99.90;;;;;;4806639;29;20055;-87
2022/06/13 14:39:42;;;;;;;3.33;1.00;;;18.20;99.90;;;;;;4798861;29;20066;-87
2022/06/13 14:42:37;;;;;;;3.58;1.33;;;18.00;99.90;;;;;;4778801;29;20556;-88
2022/06/13 14:45:22;;;;;;;4.15;1.23;;;17.90;99.90;;;;;;4756429;29;20056;-87
2022/06/13 14:48:24;;;;;;;3.70;1.05;;;17.70;99.90;;;;;;4789927;29;20057;-89
2022/06/13 14:50:56;;;;;;;4.07;1.08;;;17.90;99.90;;;;;;4807115;29;20099;-85
2022/06/13 14:53:47;;;;;;;5.60;1.00;;;18.30;99.90;;;;;;4800819;29;20050;-88